Aviation Digital Data Service (ADDS)

Output produced by METARs form (1205 UTC 23 June 2021)
found at http://www.aviationweather.gov/metar/data/
 
METAR text: KLMO 231155Z AUTO 27003KT 5SM HZ SCT070 16/08 A2994 RMK AO2 T01600076
Conditions at: KLMO (LONGMONT/VBRAND , CO, US) observed 1155 UTC 23 June 2021
Temperature: 16.0°C (61°F)
Dewpoint: 7.6°C (46°F) [RH = 57%]
Pressure (altimeter): 29.94 inches Hg (1014.0 mb)
Winds: from the W (270 degrees) at 3 MPH (3 knots; 1.5 m/s)
Visibility: 5 miles ( 8 km)
Ceiling: at least 12,000 feet AGL
Clouds: scattered clouds at 7000 feet AGL
Weather: HZ  (haze)

METAR text: KLMO 231135Z AUTO 19003KT 5SM HZ CLR 16/07 A2993 RMK AO2 T01550067
Conditions at: KLMO (LONGMONT/VBRAND , CO, US) observed 1135 UTC 23 June 2021
Temperature: 15.5°C (60°F)
Dewpoint: 6.7°C (44°F) [RH = 56%]
Pressure (altimeter): 29.93 inches Hg (1013.6 mb)
Winds: from the S (190 degrees) at 3 MPH (3 knots; 1.5 m/s)
Visibility: 5 miles ( 8 km)
Ceiling: at least 12,000 feet AGL
Clouds: sky clear below 12,000 feet AGL
Weather: HZ  (haze)

METAR text: KLMO 231115Z AUTO 24003KT 7SM CLR 16/06 A2993 RMK AO2 T01550059
Conditions at: KLMO (LONGMONT/VBRAND , CO, US) observed 1115 UTC 23 June 2021
Temperature: 15.5°C (60°F)
Dewpoint: 5.9°C (43°F) [RH = 53%]
Pressure (altimeter): 29.93 inches Hg (1013.6 mb)
Winds: from the WSW (240 degrees) at 3 MPH (3 knots; 1.5 m/s)
Visibility: 7 miles (11 km)
Ceiling: at least 12,000 feet AGL
Clouds: sky clear below 12,000 feet AGL
Weather: automated observation with no human augmentation;
there may or may not be significant weather present at this time